Time;durP1;ratioP1;P1;durP2;ratioP2;P2;SDS_P1;SDS_P2;PMS_P1;PMS_P2;Temp;Humidity;BMP_temperature;BMP_pressure;BME280_temperature;BME280_humidity;BME280_pressure;Samples;Min_cycle;Max_cycle;Signal;HPM_P1;HPM_P2
2021/09/25 00:00:20;;;;;;;19.35;6.50;;;;;;;;;;5071905;28;20035;-70
2021/09/25 00:07:58;;;;;;;13.10;6.28;;;;;;;;;;5519283;22;20095;-72
2021/09/25 00:10:25;;;;;;;15.23;7.95;;;;;;;;;;4987298;28;20026;-72
2021/09/25 00:12:51;;;;;;;18.83;8.13;;;;;;;;;;4991897;28;20027;-72
2021/09/25 00:15:18;;;;;;;14.00;6.85;;;;;;;;;;4990978;28;20022;-72
2021/09/25 00:17:45;;;;;;;16.55;6.88;;;;;;;;;;4992048;28;20030;-72
2021/09/25 00:20:12;;;;;;;17.45;7.07;;;;;;;;;;5019483;28;20030;-72
2021/09/25 00:22:38;;;;;;;21.88;7.53;;;;;;;;;;4991136;28;20030;-72
2021/09/25 00:25:04;;;;;;;16.63;7.30;;;;;;;;;;4988333;28;20033;-72
2021/09/25 00:27:30;;;;;;;20.15;8.00;;;;;;;;;;4999675;28;20058;-72
2021/09/25 00:29:57;;;;;;;15.70;7.85;;;;;;;;;;4992952;28;20391;-72
2021/09/25 00:32:23;;;;;;;20.85;7.22;;;;;;;;;;4996663;28;20026;-72
2021/09/25 00:34:49;;;;;;;19.15;8.30;;;;;;;;;;4982463;28;20039;-72
2021/09/25 00:37:15;;;;;;;19.85;8.85;;;;;;;;;;4998568;28;21002;-72
2021/09/25 00:39:41;;;;;;;13.70;8.20;;;;;;;;;;4991029;28;20027;-72
2021/09/25 00:42:08;;;;;;;16.90;7.90;;;;;;;;;;4989620;28;20057;-72
2021/09/25 00:44:34;;;;;;;17.27;7.28;;;;;;;;;;4986098;28;20042;-72
2021/09/25 00:47:00;;;;;;;17.45;7.65;;;;;;;;;;4994742;28;20030;-72
2021/09/25 00:49:26;;;;;;;19.48;9.40;;;;;;;;;;4989431;28;20057;-72
2021/09/25 00:51:52;;;;;;;18.80;8.20;;;;;;;;;;4989143;28;20268;-72
2021/09/25 00:54:18;;;;;;;15.18;8.40;;;;;;;;;;4986875;28;20207;-73
2021/09/25 00:56:45;;;;;;;20.08;8.02;;;;;;;;;;5008450;28;20027;-73
2021/09/25 00:59:12;;;;;;;25.73;8.95;;;;;;;;;;4991362;28;20041;-73
2021/09/25 01:01:39;;;;;;;19.05;8.35;;;;;;;;;;4994699;28;20022;-72
2021/09/25 01:04:06;;;;;;;17.55;9.65;;;;;;;;;;4989618;28;20054;-72
2021/09/25 01:06:32;;;;;;;20.58;8.48;;;;;;;;;;4992153;28;20033;-72
2021/09/25 01:08:59;;;;;;;23.05;10.45;;;;;;;;;;4991128;28;20065;-72
2021/09/25 01:11:26;;;;;;;21.23;9.40;;;;;;;;;;4989937;28;20128;-72
2021/09/25 01:13:55;;;;;;;16.55;8.70;;;;;;;;;;5022827;28;20035;-72
2021/09/25 01:16:22;;;;;;;25.52;10.07;;;;;;;;;;4991488;28;20037;-72
2021/09/25 01:18:48;;;;;;;21.02;9.65;;;;;;;;;;4994122;28;20033;-72
2021/09/25 01:21:14;;;;;;;21.50;9.18;;;;;;;;;;4988576;28;20045;-72
2021/09/25 01:23:40;;;;;;;19.35;9.43;;;;;;;;;;4988457;28;20110;-72
2021/09/25 01:26:07;;;;;;;20.17;9.32;;;;;;;;;;4987825;28;20034;-73
2021/09/25 01:28:34;;;;;;;26.20;9.93;;;;;;;;;;4993212;28;20108;-72
2021/09/25 01:31:00;;;;;;;22.52;10.13;;;;;;;;;;4991237;28;20526;-72
2021/09/25 01:33:30;;;;;;;21.77;10.25;;;;;;;;;;4990919;28;20041;-72
2021/09/25 01:35:57;;;;;;;28.35;11.40;;;;;;;;;;4984883;28;20117;-72
2021/09/25 01:38:23;;;;;;;23.50;10.10;;;;;;;;;;4995902;28;20471;-72
2021/09/25 01:40:49;;;;;;;21.48;10.77;;;;;;;;;;4989578;28;20031;-72
2021/09/25 01:43:15;;;;;;;34.63;13.45;;;;;;;;;;4989820;28;20076;-72
2021/09/25 01:45:42;;;;;;;28.85;10.60;;;;;;;;;;4985775;28;20026;-73
2021/09/25 01:48:08;;;;;;;34.03;11.93;;;;;;;;;;4987487;28;20035;-72
2021/09/25 01:50:34;;;;;;;23.15;11.30;;;;;;;;;;4988061;28;20053;-72
2021/09/25 01:53:00;;;;;;;24.33;11.95;;;;;;;;;;4992457;28;20022;-72
2021/09/25 01:55:26;;;;;;;28.05;11.90;;;;;;;;;;4984639;28;20050;-72
2021/09/25 01:57:53;;;;;;;22.85;11.35;;;;;;;;;;4990923;28;20030;-73
2021/09/25 02:00:19;;;;;;;27.88;11.75;;;;;;;;;;4990515;28;20381;-72
2021/09/25 02:02:46;;;;;;;23.85;11.95;;;;;;;;;;4991179;28;20059;-73
2021/09/25 02:05:15;;;;;;;26.27;12.23;;;;;;;;;;4984724;28;20049;-72
2021/09/25 02:07:41;;;;;;;28.83;12.40;;;;;;;;;;4994782;28;20053;-73
2021/09/25 02:10:07;;;;;;;29.67;12.23;;;;;;;;;;4989858;28;20022;-73
2021/09/25 02:12:33;;;;;;;25.83;12.75;;;;;;;;;;4989627;28;20035;-72
2021/09/25 02:14:59;;;;;;;23.85;12.85;;;;;;;;;;4985836;28;20491;-72
2021/09/25 02:17:25;;;;;;;32.90;12.15;;;;;;;;;;4994498;28;20433;-72
2021/09/25 02:19:51;;;;;;;33.78;12.50;;;;;;;;;;4985508;28;20156;-72
2021/09/25 02:22:17;;;;;;;25.52;12.27;;;;;;;;;;5019413;28;20512;-73
2021/09/25 02:24:44;;;;;;;28.30;12.85;;;;;;;;;;4987304;28;20038;-72
2021/09/25 02:27:10;;;;;;;24.20;12.35;;;;;;;;;;4992175;28;20025;-73
2021/09/25 02:29:36;;;;;;;32.53;14.27;;;;;;;;;;4990084;28;20053;-73
2021/09/25 02:32:02;;;;;;;31.63;13.50;;;;;;;;;;4991682;28;20026;-73
2021/09/25 02:34:28;;;;;;;27.83;13.27;;;;;;;;;;4986357;28;20219;-72
2021/09/25 02:36:57;;;;;;;28.67;12.63;;;;;;;;;;4988492;28;20029;-73
2021/09/25 02:39:23;;;;;;;32.70;13.20;;;;;;;;;;4990318;28;20026;-73
2021/09/25 02:41:49;;;;;;;39.60;18.25;;;;;;;;;;4989983;28;20030;-72
2021/09/25 02:44:15;;;;;;;27.35;14.02;;;;;;;;;;4986146;28;20045;-73
2021/09/25 02:46:41;;;;;;;33.10;13.38;;;;;;;;;;4989031;28;20117;-72
2021/09/25 02:49:08;;;;;;;31.30;14.10;;;;;;;;;;4989470;28;20034;-73
2021/09/25 02:51:34;;;;;;;35.03;14.38;;;;;;;;;;4987946;28;20414;-73
2021/09/25 02:54:00;;;;;;;30.25;12.85;;;;;;;;;;4982426;28;20026;-73
2021/09/25 02:56:26;;;;;;;32.45;14.80;;;;;;;;;;4987526;28;20030;-73
2021/09/25 02:58:52;;;;;;;29.35;14.23;;;;;;;;;;4990542;28;20022;-72
2021/09/25 03:01:18;;;;;;;32.78;13.65;;;;;;;;;;5018954;28;20084;-73
2021/09/25 03:03:44;;;;;;;27.83;13.70;;;;;;;;;;4993075;28;20038;-72
2021/09/25 03:06:10;;;;;;;31.98;14.27;;;;;;;;;;4989998;28;20030;-73
2021/09/25 03:08:36;;;;;;;30.17;13.98;;;;;;;;;;4992828;28;20054;-73
2021/09/25 03:11:02;;;;;;;36.38;15.90;;;;;;;;;;4994032;28;20037;-72
2021/09/25 03:13:28;;;;;;;28.17;14.70;;;;;;;;;;4992341;28;20030;-73
2021/09/25 03:15:54;;;;;;;27.98;13.43;;;;;;;;;;4991152;28;20101;-73
2021/09/25 03:18:20;;;;;;;28.02;14.60;;;;;;;;;;4994532;28;20422;-73
2021/09/25 03:20:46;;;;;;;27.65;13.93;;;;;;;;;;4990349;28;20117;-73
2021/09/25 03:23:12;;;;;;;27.33;14.10;;;;;;;;;;4991282;28;20050;-73
2021/09/25 03:25:38;;;;;;;33.92;14.82;;;;;;;;;;4996116;28;20022;-73
2021/09/25 03:28:04;;;;;;;25.92;13.48;;;;;;;;;;4994040;28;20099;-73
2021/09/25 03:30:31;;;;;;;34.22;13.55;;;;;;;;;;4997652;28;20030;-72
2021/09/25 03:32:57;;;;;;;30.40;13.52;;;;;;;;;;4995541;28;20046;-72
2021/09/25 03:35:23;;;;;;;25.48;12.77;;;;;;;;;;4990032;28;20021;-72
2021/09/25 03:37:49;;;;;;;30.80;14.85;;;;;;;;;;4993120;28;20030;-73
2021/09/25 03:40:15;;;;;;;27.20;13.80;;;;;;;;;;4994668;28;20097;-73
2021/09/25 03:42:41;;;;;;;29.67;13.40;;;;;;;;;;4993416;28;20077;-73
2021/09/25 03:45:07;;;;;;;27.48;12.60;;;;;;;;;;4989351;28;20042;-73
2021/09/25 03:47:33;;;;;;;26.73;13.88;;;;;;;;;;4999386;28;20536;-73
2021/09/25 03:50:00;;;;;;;28.50;14.15;;;;;;;;;;5020287;28;20054;-73
2021/09/25 03:52:26;;;;;;;25.55;13.57;;;;;;;;;;5023985;28;20037;-73
2021/09/25 03:54:52;;;;;;;31.63;14.05;;;;;;;;;;4989878;28;20038;-73
2021/09/25 03:57:18;;;;;;;32.92;13.23;;;;;;;;;;4997952;28;20109;-73
2021/09/25 03:59:44;;;;;;;26.52;13.30;;;;;;;;;;4985351;28;20023;-73
2021/09/25 04:02:10;;;;;;;25.98;13.52;;;;;;;;;;4995545;28;20671;-73
2021/09/25 04:04:37;;;;;;;34.38;14.70;;;;;;;;;;4985121;28;20031;-72
2021/09/25 04:07:03;;;;;;;28.05;13.65;;;;;;;;;;4995823;28;20057;-72
2021/09/25 04:09:29;;;;;;;30.58;14.13;;;;;;;;;;4992821;28;20445;-73
2021/09/25 04:11:55;;;;;;;30.08;15.50;;;;;;;;;;4996521;28;20061;-73
2021/09/25 04:14:21;;;;;;;28.05;14.52;;;;;;;;;;4988603;28;20026;-73
2021/09/25 04:16:47;;;;;;;32.33;15.27;;;;;;;;;;4990636;28;20100;-74
2021/09/25 04:19:14;;;;;;;29.83;14.02;;;;;;;;;;4991148;28;20422;-73
2021/09/25 04:21:40;;;;;;;24.83;14.15;;;;;;;;;;4978680;28;20292;-73
2021/09/25 04:24:06;;;;;;;27.80;14.15;;;;;;;;;;4987805;28;20506;-72
2021/09/25 04:26:32;;;;;;;31.58;14.85;;;;;;;;;;4990534;28;20411;-73
2021/09/25 04:28:58;;;;;;;32.10;14.07;;;;;;;;;;4989944;28;20030;-73
2021/09/25 04:31:25;;;;;;;31.35;14.10;;;;;;;;;;4994054;28;20117;-73
2021/09/25 04:33:51;;;;;;;25.30;13.82;;;;;;;;;;4989364;28;20023;-73
2021/09/25 04:36:17;;;;;;;28.98;13.18;;;;;;;;;;4987093;28;20030;-73
2021/09/25 04:38:43;;;;;;;25.42;12.75;;;;;;;;;;4989506;28;20465;-73
2021/09/25 04:41:09;;;;;;;28.50;13.13;;;;;;;;;;4989887;28;20026;-73
2021/09/25 04:43:35;;;;;;;26.60;14.38;;;;;;;;;;4987211;28;20027;-73
2021/09/25 04:46:01;;;;;;;25.45;13.18;;;;;;;;;;4988313;28;20026;-73
2021/09/25 04:48:27;;;;;;;36.53;14.57;;;;;;;;;;4990231;28;20125;-73
2021/09/25 04:50:53;;;;;;;30.55;14.23;;;;;;;;;;4988792;28;20037;-73
2021/09/25 04:53:19;;;;;;;32.55;16.10;;;;;;;;;;4990231;28;20076;-73
2021/09/25 04:55:45;;;;;;;26.38;14.30;;;;;;;;;;4989356;28;20076;-73
2021/09/25 04:58:12;;;;;;;32.50;15.02;;;;;;;;;;4990151;28;20089;-73
2021/09/25 05:00:38;;;;;;;27.73;14.48;;;;;;;;;;4989012;28;20019;-72
2021/09/25 05:03:04;;;;;;;33.45;16.15;;;;;;;;;;4990877;28;20026;-73
2021/09/25 05:05:30;;;;;;;34.42;16.65;;;;;;;;;;4986913;28;20030;-72
2021/09/25 05:07:56;;;;;;;27.10;15.85;;;;;;;;;;4991940;28;20132;-73
2021/09/25 05:10:22;;;;;;;31.42;15.13;;;;;;;;;;4990141;28;20022;-73
2021/09/25 05:12:48;;;;;;;28.27;16.02;;;;;;;;;;4989320;28;20025;-73
2021/09/25 05:15:16;;;;;;;31.80;16.02;;;;;;;;;;4988072;28;20019;-72
2021/09/25 05:17:42;;;;;;;43.72;17.10;;;;;;;;;;4989914;28;20057;-73
2021/09/25 05:20:09;;;;;;;30.98;16.70;;;;;;;;;;4989436;28;20033;-72
2021/09/25 05:22:35;;;;;;;36.53;16.77;;;;;;;;;;5020927;28;20045;-73
2021/09/25 05:25:01;;;;;;;34.83;17.40;;;;;;;;;;4987392;28;20287;-73
2021/09/25 05:27:27;;;;;;;31.27;16.17;;;;;;;;;;4989529;28;20038;-72
2021/09/25 05:29:54;;;;;;;35.53;18.92;;;;;;;;;;4994123;28;20133;-73
2021/09/25 05:32:20;;;;;;;35.17;18.50;;;;;;;;;;4989783;28;20026;-73
2021/09/25 05:34:46;;;;;;;38.10;17.20;;;;;;;;;;4986194;28;20061;-72
2021/09/25 05:37:14;;;;;;;36.65;18.13;;;;;;;;;;4987262;28;20077;-72
2021/09/25 05:39:40;;;;;;;38.22;17.48;;;;;;;;;;4985918;28;20421;-73
2021/09/25 05:42:06;;;;;;;31.00;15.63;;;;;;;;;;4990534;28;20031;-73
2021/09/25 05:44:32;;;;;;;29.35;15.05;;;;;;;;;;4987713;28;20050;-72
2021/09/25 05:46:58;;;;;;;28.50;15.52;;;;;;;;;;4990786;28;20034;-73
2021/09/25 05:49:24;;;;;;;29.58;17.23;;;;;;;;;;4991465;28;20368;-73
2021/09/25 05:51:50;;;;;;;31.45;16.08;;;;;;;;;;4988905;28;20045;-73
2021/09/25 05:54:17;;;;;;;25.52;14.40;;;;;;;;;;4988001;28;20242;-73
2021/09/25 05:56:43;;;;;;;30.95;16.42;;;;;;;;;;4981205;28;20257;-72
2021/09/25 05:59:09;;;;;;;28.17;13.63;;;;;;;;;;4988941;28;20041;-72
2021/09/25 06:01:36;;;;;;;33.83;16.55;;;;;;;;;;4991105;28;20406;-73
2021/09/25 06:04:02;;;;;;;29.77;15.55;;;;;;;;;;4983630;28;20030;-72
2021/09/25 06:06:28;;;;;;;29.35;17.05;;;;;;;;;;4988620;28;20027;-73
2021/09/25 06:08:55;;;;;;;37.33;15.88;;;;;;;;;;4990501;28;20430;-73
2021/09/25 06:11:21;;;;;;;35.42;16.67;;;;;;;;;;4990359;28;20026;-73
2021/09/25 06:13:47;;;;;;;34.15;16.67;;;;;;;;;;4995592;28;20409;-73
2021/09/25 06:16:13;;;;;;;28.90;16.50;;;;;;;;;;4987705;28;20463;-72
2021/09/25 06:18:39;;;;;;;39.30;16.38;;;;;;;;;;4989242;28;20428;-72
2021/09/25 06:21:05;;;;;;;42.30;17.23;;;;;;;;;;5018831;28;20030;-72
2021/09/25 06:23:31;;;;;;;29.95;16.63;;;;;;;;;;4986142;28;20045;-73
2021/09/25 06:25:57;;;;;;;45.25;18.88;;;;;;;;;;4988080;28;20483;-72
2021/09/25 06:28:23;;;;;;;38.03;18.27;;;;;;;;;;4982280;28;20030;-73
2021/09/25 06:30:49;;;;;;;47.00;19.00;;;;;;;;;;4989366;28;20026;-73
2021/09/25 06:33:15;;;;;;;48.50;19.75;;;;;;;;;;4987506;28;20121;-73
2021/09/25 06:35:41;;;;;;;46.63;19.40;;;;;;;;;;4985772;28;20061;-73
2021/09/25 06:38:07;;;;;;;53.78;20.10;;;;;;;;;;4993898;28;20026;-72
2021/09/25 06:40:34;;;;;;;50.45;22.17;;;;;;;;;;4994248;28;20034;-72
2021/09/25 06:43:00;;;;;;;56.55;22.45;;;;;;;;;;4993314;28;20026;-72
2021/09/25 06:45:32;;;;;;;59.97;22.60;;;;;;;;;;4988078;28;20121;-73
2021/09/25 06:47:58;;;;;;;64.95;23.58;;;;;;;;;;4991813;28;20034;-72
2021/09/25 06:50:24;;;;;;;66.18;23.98;;;;;;;;;;4990628;28;20026;-73
2021/09/25 06:52:50;;;;;;;69.28;24.00;;;;;;;;;;4989186;28;20038;-73
2021/09/25 06:55:16;;;;;;;68.60;24.48;;;;;;;;;;4985762;28;20018;-72
2021/09/25 06:57:42;;;;;;;61.13;24.70;;;;;;;;;;4993433;28;20038;-73
2021/09/25 07:00:09;;;;;;;64.30;24.05;;;;;;;;;;4989448;28;20046;-72
2021/09/25 07:02:38;;;;;;;65.35;23.85;;;;;;;;;;4999623;28;20022;-72
2021/09/25 07:05:05;;;;;;;54.08;23.75;;;;;;;;;;4995582;28;20030;-72
2021/09/25 07:07:31;;;;;;;55.22;23.35;;;;;;;;;;4992988;28;20100;-72
2021/09/25 07:09:57;;;;;;;46.08;21.50;;;;;;;;;;4992969;28;20034;-72
2021/09/25 07:12:23;;;;;;;52.40;23.60;;;;;;;;;;4994741;28;20057;-72
2021/09/25 07:14:49;;;;;;;58.63;22.52;;;;;;;;;;4991698;28;20030;-72
2021/09/25 07:17:15;;;;;;;53.58;21.13;;;;;;;;;;4993693;28;20112;-72
2021/09/25 07:19:41;;;;;;;47.35;21.92;;;;;;;;;;4995524;28;20022;-73
2021/09/25 07:22:08;;;;;;;57.28;22.52;;;;;;;;;;4992340;28;20054;-73
2021/09/25 07:24:34;;;;;;;47.28;22.88;;;;;;;;;;4986367;28;20208;-73
2021/09/25 07:27:01;;;;;;;61.53;24.88;;;;;;;;;;4993668;28;20035;-72
2021/09/25 07:29:27;;;;;;;54.50;23.00;;;;;;;;;;4994220;28;20085;-73
2021/09/25 07:31:53;;;;;;;51.00;23.23;;;;;;;;;;4988170;28;20030;-72
2021/09/25 07:34:19;;;;;;;55.10;22.52;;;;;;;;;;4988438;28;20208;-73
2021/09/25 07:36:45;;;;;;;51.58;24.88;;;;;;;;;;4990979;28;20376;-72
2021/09/25 07:39:11;;;;;;;52.50;23.30;;;;;;;;;;4991982;28;20022;-72
2021/09/25 07:41:37;;;;;;;50.60;23.58;;;;;;;;;;4995552;28;20029;-72
2021/09/25 07:44:04;;;;;;;59.42;24.88;;;;;;;;;;4984117;28;20495;-72
2021/09/25 07:46:31;;;;;;;49.28;25.30;;;;;;;;;;4992363;28;20088;-72
2021/09/25 07:48:59;;;;;;;52.08;24.38;;;;;;;;;;4995512;28;20034;-72
2021/09/25 07:51:25;;;;;;;57.67;27.20;;;;;;;;;;4994084;28;20022;-71
2021/09/25 07:53:51;;;;;;;49.42;26.27;;;;;;;;;;4988575;28;20065;-72
2021/09/25 07:56:17;;;;;;;47.42;24.70;;;;;;;;;;4986123;28;21048;-72
2021/09/25 07:58:43;;;;;;;46.10;23.90;;;;;;;;;;4993139;28;20033;-72
2021/09/25 08:01:09;;;;;;;46.28;25.02;;;;;;;;;;4997167;28;20042;-71
2021/09/25 08:03:35;;;;;;;52.90;25.50;;;;;;;;;;4992261;28;20018;-71
2021/09/25 08:06:01;;;;;;;43.63;24.30;;;;;;;;;;4988942;28;20037;-71
2021/09/25 08:08:27;;;;;;;48.40;25.73;;;;;;;;;;4994587;28;20460;-71
2021/09/25 08:10:54;;;;;;;41.95;23.27;;;;;;;;;;4998948;28;20099;-71
2021/09/25 08:13:20;;;;;;;42.67;24.27;;;;;;;;;;4988338;28;20463;-71
2021/09/25 08:15:46;;;;;;;47.80;24.02;;;;;;;;;;4988403;28;20510;-72
2021/09/25 08:18:12;;;;;;;48.15;24.40;;;;;;;;;;4986295;28;20033;-71
2021/09/25 08:20:39;;;;;;;50.97;24.42;;;;;;;;;;4988509;28;20117;-71
2021/09/25 08:23:05;;;;;;;42.55;22.58;;;;;;;;;;4988267;28;20030;-71
2021/09/25 08:25:31;;;;;;;43.17;22.10;;;;;;;;;;4986983;28;20026;-72
2021/09/25 08:27:57;;;;;;;43.75;22.48;;;;;;;;;;4990641;28;20081;-72
2021/09/25 08:30:25;;;;;;;47.85;24.33;;;;;;;;;;4986671;28;20030;-71
2021/09/25 08:32:51;;;;;;;52.08;22.92;;;;;;;;;;4991679;28;20022;-71
2021/09/25 08:35:17;;;;;;;46.85;22.58;;;;;;;;;;4987022;28;20113;-71
2021/09/25 08:37:44;;;;;;;51.42;25.23;;;;;;;;;;4985994;28;20023;-71
2021/09/25 08:40:12;;;;;;;46.63;24.30;;;;;;;;;;4990761;28;20026;-71
2021/09/25 08:42:38;;;;;;;45.10;24.05;;;;;;;;;;4995338;28;20080;-71
2021/09/25 08:45:05;;;;;;;53.45;26.17;;;;;;;;;;4982683;28;20117;-72
2021/09/25 08:47:32;;;;;;;51.65;26.13;;;;;;;;;;4985450;28;20551;-71
2021/09/25 08:49:58;;;;;;;51.15;26.30;;;;;;;;;;4991675;28;20034;-71
2021/09/25 08:52:24;;;;;;;47.70;23.55;;;;;;;;;;4992883;28;20037;-70
2021/09/25 08:54:50;;;;;;;46.40;26.95;;;;;;;;;;4993024;28;20057;-70
2021/09/25 08:57:16;;;;;;;49.85;25.80;;;;;;;;;;5000181;28;20022;-70
2021/09/25 08:59:42;;;;;;;54.00;26.25;;;;;;;;;;4994036;28;20031;-71
2021/09/25 09:02:13;;;;;;;46.63;25.10;;;;;;;;;;4983841;28;20066;-71
2021/09/25 09:04:52;;;;;;;53.22;26.08;;;;;;;;;;4993737;28;20294;-70
2021/09/25 09:07:23;;;;;;;50.17;26.70;;;;;;;;;;4992511;28;20096;-70
2021/09/25 09:09:49;;;;;;;57.30;29.33;;;;;;;;;;4998436;28;20528;-71
2021/09/25 09:12:21;;;;;;;42.13;23.05;;;;;;;;;;4998334;28;20219;-71
2021/09/25 09:14:48;;;;;;;50.17;24.25;;;;;;;;;;4998281;28;20034;-71
2021/09/25 09:17:15;;;;;;;47.55;25.02;;;;;;;;;;5001722;28;20037;-71
2021/09/25 09:19:41;;;;;;;46.13;25.10;;;;;;;;;;4996545;28;20028;-71
2021/09/25 09:22:08;;;;;;;47.42;23.35;;;;;;;;;;4991601;28;20035;-70
2021/09/25 09:24:47;;;;;;;47.45;24.60;;;;;;;;;;4998625;28;20064;-71
2021/09/25 09:27:14;;;;;;;47.10;24.92;;;;;;;;;;4994634;28;20069;-70
2021/09/25 09:29:40;;;;;;;57.28;26.13;;;;;;;;;;5002198;28;20381;-70
2021/09/25 09:32:08;;;;;;;47.80;25.85;;;;;;;;;;5001344;28;20038;-71
2021/09/25 09:34:38;;;;;;;45.92;24.25;;;;;;;;;;4997785;28;20101;-71
2021/09/25 09:37:15;;;;;;;50.60;25.17;;;;;;;;;;4998957;28;20030;-71
2021/09/25 09:39:41;;;;;;;51.88;25.95;;;;;;;;;;4996760;28;20564;-71
2021/09/25 09:42:07;;;;;;;50.88;27.35;;;;;;;;;;5002177;28;20041;-70
2021/09/25 09:44:33;;;;;;;60.85;28.90;;;;;;;;;;4995431;28;20038;-70
2021/09/25 09:47:04;;;;;;;49.17;26.98;;;;;;;;;;4995339;28;20116;-70
2021/09/25 09:49:35;;;;;;;53.60;27.75;;;;;;;;;;5003494;28;20068;-70
2021/09/25 09:52:03;;;;;;;55.83;26.52;;;;;;;;;;5001123;28;20426;-70
2021/09/25 09:54:34;;;;;;;52.97;28.77;;;;;;;;;;4997537;28;20124;-71
2021/09/25 09:57:01;;;;;;;53.90;27.17;;;;;;;;;;5001502;28;20018;-71
2021/09/25 09:59:28;;;;;;;53.38;28.65;;;;;;;;;;4998516;28;20026;-71
2021/09/25 10:01:54;;;;;;;58.03;26.65;;;;;;;;;;5003295;28;20034;-71
2021/09/25 10:04:21;;;;;;;54.95;27.10;;;;;;;;;;4994123;28;20546;-71
2021/09/25 10:06:48;;;;;;;52.67;25.35;;;;;;;;;;5002364;28;20395;-71
2021/09/25 10:09:16;;;;;;;51.63;26.90;;;;;;;;;;5000127;28;20124;-70
2021/09/25 10:11:43;;;;;;;54.58;27.92;;;;;;;;;;4994066;28;20080;-70
2021/09/25 10:14:10;;;;;;;58.13;29.02;;;;;;;;;;5000114;28;20454;-71
2021/09/25 10:16:36;;;;;;;53.78;28.63;;;;;;;;;;4994630;28;20018;-70
2021/09/25 10:19:04;;;;;;;54.75;27.67;;;;;;;;;;4981108;28;20027;-70
2021/09/25 10:21:33;;;;;;;54.40;29.00;;;;;;;;;;4993953;28;20026;-70
2021/09/25 10:24:05;;;;;;;52.10;27.15;;;;;;;;;;4988024;28;20022;-71
2021/09/25 10:26:32;;;;;;;63.97;29.55;;;;;;;;;;4999982;28;20030;-71
2021/09/25 10:29:04;;;;;;;66.32;30.77;;;;;;;;;;4990497;28;20084;-70
2021/09/25 10:31:30;;;;;;;60.42;30.60;;;;;;;;;;5003432;28;20028;-71
2021/09/25 10:34:05;;;;;;;65.43;30.95;;;;;;;;;;4992944;28;20033;-70
2021/09/25 10:36:38;;;;;;;62.75;29.52;;;;;;;;;;4987885;28;20029;-71
2021/09/25 10:39:26;;;;;;;53.28;27.05;;;;;;;;;;4990512;28;20058;-70
2021/09/25 10:42:00;;;;;;;61.53;30.92;;;;;;;;;;4993280;28;20018;-70
2021/09/25 10:44:30;;;;;;;59.63;30.20;;;;;;;;;;4990798;28;20058;-71
2021/09/25 10:47:05;;;;;;;59.97;29.08;;;;;;;;;;4995769;28;20029;-71
2021/09/25 10:49:46;;;;;;;58.42;29.30;;;;;;;;;;4993251;28;20034;-71
2021/09/25 10:52:13;;;;;;;51.63;28.88;;;;;;;;;;4995436;28;20037;-70
2021/09/25 10:54:39;;;;;;;52.80;27.77;;;;;;;;;;4987981;28;20030;-71
2021/09/25 10:57:14;;;;;;;50.38;26.52;;;;;;;;;;5001186;28;20030;-71
2021/09/25 10:59:59;;;;;;;55.63;29.10;;;;;;;;;;4998528;28;20146;-70
2021/09/25 11:02:41;;;;;;;54.28;27.20;;;;;;;;;;5002390;28;20486;-71
2021/09/25 11:05:07;;;;;;;56.53;28.25;;;;;;;;;;4991912;28;20587;-71
2021/09/25 11:07:37;;;;;;;48.00;25.65;;;;;;;;;;4997217;28;20056;-70
2021/09/25 11:10:03;;;;;;;52.65;28.00;;;;;;;;;;4999226;28;20180;-71
2021/09/25 11:12:42;;;;;;;51.53;28.00;;;;;;;;;;5000750;28;20029;-71
2021/09/25 11:15:28;;;;;;;50.08;26.90;;;;;;;;;;4994830;28;20019;-71
2021/09/25 11:18:14;;;;;;;47.38;27.90;;;;;;;;;;4999038;28;20048;-71
2021/09/25 11:20:40;;;;;;;52.20;27.80;;;;;;;;;;4996695;28;20030;-71
2021/09/25 11:23:06;;;;;;;50.08;27.70;;;;;;;;;;5001828;28;20040;-70
2021/09/25 11:25:32;;;;;;;48.55;26.67;;;;;;;;;;5000402;28;20033;-71
2021/09/25 11:28:04;;;;;;;47.63;26.65;;;;;;;;;;5004799;28;20038;-70
2021/09/25 11:30:31;;;;;;;43.75;24.40;;;;;;;;;;5001820;28;20025;-70
2021/09/25 11:32:58;;;;;;;47.92;26.58;;;;;;;;;;4998645;28;20426;-71
2021/09/25 11:35:25;;;;;;;46.33;24.58;;;;;;;;;;4996975;28;20029;-70
2021/09/25 11:38:11;;;;;;;46.33;26.13;;;;;;;;;;5004312;28;20029;-70
2021/09/25 11:40:38;;;;;;;40.03;23.77;;;;;;;;;;5000216;28;20054;-70
2021/09/25 11:43:07;;;;;;;44.85;24.92;;;;;;;;;;5000290;28;20034;-70
2021/09/25 11:45:36;;;;;;;40.47;23.00;;;;;;;;;;5001038;28;20073;-71
2021/09/25 11:48:03;;;;;;;41.03;23.38;;;;;;;;;;5004367;28;20049;-71
2021/09/25 11:50:31;;;;;;;39.45;22.92;;;;;;;;;;5004517;28;20076;-71
2021/09/25 11:53:00;;;;;;;42.30;23.58;;;;;;;;;;5001326;28;20050;-71
2021/09/25 11:55:27;;;;;;;41.75;22.88;;;;;;;;;;4997965;28;20049;-71
2021/09/25 11:57:55;;;;;;;42.08;23.75;;;;;;;;;;5001991;28;20022;-70
2021/09/25 12:00:28;;;;;;;40.00;22.55;;;;;;;;;;4998320;28;20034;-70
2021/09/25 12:02:55;;;;;;;38.22;20.75;;;;;;;;;;5001980;28;20037;-70
2021/09/25 12:05:29;;;;;;;39.38;22.17;;;;;;;;;;4997019;28;20065;-70
2021/09/25 12:07:57;;;;;;;38.55;21.27;;;;;;;;;;5000359;28;20554;-70
2021/09/25 12:10:24;;;;;;;37.00;20.85;;;;;;;;;;5005858;28;20026;-70
2021/09/25 12:12:55;;;;;;;37.53;22.90;;;;;;;;;;5001541;28;20168;-70
2021/09/25 12:15:25;;;;;;;47.22;29.30;;;;;;;;;;5000638;28;20018;-70
2021/09/25 12:18:09;;;;;;;46.00;30.25;;;;;;;;;;4993805;28;20037;-70
2021/09/25 12:20:35;;;;;;;38.38;25.17;;;;;;;;;;4993152;28;20037;-70
2021/09/25 12:23:04;;;;;;;37.58;24.35;;;;;;;;;;5001027;28;20411;-70
2021/09/25 12:25:30;;;;;;;34.88;21.88;;;;;;;;;;4995008;28;20486;-70
2021/09/25 12:27:56;;;;;;;33.15;20.33;;;;;;;;;;4993241;28;20030;-70
2021/09/25 12:30:22;;;;;;;34.10;20.08;;;;;;;;;;4996669;28;20022;-70
2021/09/25 12:33:01;;;;;;;38.40;22.40;;;;;;;;;;4996647;28;20037;-70
2021/09/25 12:35:27;;;;;;;40.25;22.75;;;;;;;;;;4981801;28;20030;-70
2021/09/25 12:37:53;;;;;;;43.17;22.80;;;;;;;;;;4992685;28;20077;-70
2021/09/25 12:40:19;;;;;;;40.30;23.60;;;;;;;;;;4999620;28;20038;-70
2021/09/25 12:42:45;;;;;;;37.45;24.45;;;;;;;;;;4997125;28;20038;-71
2021/09/25 12:45:12;;;;;;;38.97;24.63;;;;;;;;;;4996092;28;20026;-70
2021/09/25 12:47:39;;;;;;;40.42;22.60;;;;;;;;;;4996812;28;20162;-70
2021/09/25 12:50:14;;;;;;;37.38;21.65;;;;;;;;;;4988200;28;20066;-70
2021/09/25 12:52:41;;;;;;;33.47;19.92;;;;;;;;;;4985455;28;20042;-70
2021/09/25 12:55:09;;;;;;;38.95;22.27;;;;;;;;;;4991964;28;20113;-70
2021/09/25 12:57:35;;;;;;;41.15;23.52;;;;;;;;;;4988798;28;20026;-70
2021/09/25 13:00:02;;;;;;;39.58;22.50;;;;;;;;;;4988365;28;20041;-69
2021/09/25 13:02:29;;;;;;;38.80;23.45;;;;;;;;;;4989066;28;20110;-70
2021/09/25 13:04:56;;;;;;;42.17;24.13;;;;;;;;;;4989286;28;20036;-70
2021/09/25 13:07:26;;;;;;;46.58;26.98;;;;;;;;;;4990225;28;20050;-69
2021/09/25 13:09:53;;;;;;;36.60;22.90;;;;;;;;;;4990327;28;20398;-70
2021/09/25 13:12:19;;;;;;;38.22;24.02;;;;;;;;;;4991014;28;20034;-70
2021/09/25 13:14:57;;;;;;;41.78;23.88;;;;;;;;;;4984896;28;20410;-70
2021/09/25 13:17:23;;;;;;;35.15;23.10;;;;;;;;;;4989105;28;20025;-70
2021/09/25 13:19:49;;;;;;;36.58;22.35;;;;;;;;;;4985287;28;20034;-70
2021/09/25 13:22:15;;;;;;;39.50;24.67;;;;;;;;;;4993100;28;20038;-69
2021/09/25 13:24:41;;;;;;;45.08;22.73;;;;;;;;;;4992859;28;20037;-70
2021/09/25 13:27:09;;;;;;;44.53;24.95;;;;;;;;;;4988505;28;20030;-71
2021/09/25 13:29:35;;;;;;;48.50;24.77;;;;;;;;;;4991671;28;20108;-70
2021/09/25 13:32:01;;;;;;;44.58;26.30;;;;;;;;;;4991650;28;20030;-70
2021/09/25 13:34:27;;;;;;;51.33;28.02;;;;;;;;;;4989829;28;20038;-70
2021/09/25 13:36:53;;;;;;;48.40;26.90;;;;;;;;;;4991959;28;20034;-70
2021/09/25 13:39:19;;;;;;;45.88;26.13;;;;;;;;;;4992891;28;20030;-71
2021/09/25 13:41:45;;;;;;;43.90;27.10;;;;;;;;;;4988720;28;20041;-70
2021/09/25 13:44:11;;;;;;;46.85;26.75;;;;;;;;;;4987930;28;20053;-70
2021/09/25 13:46:37;;;;;;;46.05;26.60;;;;;;;;;;5020036;28;20395;-70
2021/09/25 13:49:03;;;;;;;46.90;27.55;;;;;;;;;;4985513;28;20386;-70
2021/09/25 13:51:29;;;;;;;40.00;24.63;;;;;;;;;;4988623;28;20070;-70
2021/09/25 13:53:56;;;;;;;43.67;24.23;;;;;;;;;;4989829;28;20054;-70
2021/09/25 13:56:22;;;;;;;49.25;26.15;;;;;;;;;;4988006;28;20023;-69
2021/09/25 13:58:48;;;;;;;56.65;28.92;;;;;;;;;;4987138;28;20038;-70
2021/09/25 14:01:14;;;;;;;46.03;28.20;;;;;;;;;;4987121;28;20041;-70
2021/09/25 14:03:40;;;;;;;45.05;26.17;;;;;;;;;;4989162;28;20510;-70
2021/09/25 14:06:08;;;;;;;53.65;30.50;;;;;;;;;;4985921;28;20037;-70
2021/09/25 14:08:35;;;;;;;52.50;30.67;;;;;;;;;;4990201;28;20069;-70
2021/09/25 14:11:01;;;;;;;47.97;27.33;;;;;;;;;;4989423;28;20080;-70
2021/09/25 14:13:27;;;;;;;54.88;30.67;;;;;;;;;;4988500;28;20030;-70
2021/09/25 14:15:53;;;;;;;52.20;30.80;;;;;;;;;;4989023;28;20026;-70
2021/09/25 14:18:19;;;;;;;53.83;30.55;;;;;;;;;;4985129;28;20073;-70
2021/09/25 14:20:45;;;;;;;54.97;30.35;;;;;;;;;;4996895;28;20029;-70
2021/09/25 14:23:12;;;;;;;51.78;30.30;;;;;;;;;;4992162;28;20030;-70